Time;durP1;ratioP1;P1;durP2;ratioP2;P2;SDS_P1;SDS_P2;PMS_P1;PMS_P2;Temp;Humidity;BMP_temperature;BMP_pressure;BME280_temperature;BME280_humidity;BME280_pressure;Samples;Min_cycle;Max_cycle;Signal;HPM_P1;HPM_P2
2021/04/08 00:01:05;;;;;;;9.73;4.80;;;;;;;;;;5118729;28;20228;-73
2021/04/08 00:03:32;;;;;;;12.13;5.47;;;;;;;;;;5118676;28;20558;-73
2021/04/08 00:05:59;;;;;;;7.93;4.70;;;;;;;;;;5118880;28;20235;-73
2021/04/08 00:08:27;;;;;;;11.47;6.10;;;;;;;;;;5118970;28;20205;-73
2021/04/08 00:10:54;;;;;;;12.83;5.50;;;;;;;;;;5118866;28;20208;-73
2021/04/08 00:13:21;;;;;;;15.97;5.43;;;;;;;;;;5118599;28;20255;-73
2021/04/08 00:15:51;;;;;;;16.80;4.83;;;;;;;;;;5118251;28;20605;-73
2021/04/08 00:18:18;;;;;;;8.73;5.10;;;;;;;;;;5118405;28;20284;-73
2021/04/08 00:20:45;;;;;;;10.27;4.90;;;;;;;;;;5118747;28;20521;-73
2021/04/08 00:23:12;;;;;;;15.47;6.20;;;;;;;;;;5118408;28;20324;-73
2021/04/08 00:25:40;;;;;;;11.50;4.77;;;;;;;;;;5118362;28;20279;-73
2021/04/08 00:28:07;;;;;;;10.63;5.27;;;;;;;;;;5118269;27;20261;-73
2021/04/08 00:30:42;;;;;;;7.80;5.03;;;;;;;;;;5118258;28;20292;-73
2021/04/08 00:33:10;;;;;;;16.60;5.27;;;;;;;;;;5118516;28;20229;-73
2021/04/08 00:35:37;;;;;;;11.87;5.33;;;;;;;;;;5118354;28;20307;-73
2021/04/08 00:38:04;;;;;;;10.90;5.70;;;;;;;;;;5118508;28;20280;-73
2021/04/08 00:40:31;;;;;;;8.27;4.40;;;;;;;;;;5118389;28;20477;-73
2021/04/08 00:42:59;;;;;;;10.13;4.90;;;;;;;;;;5117976;28;20283;-73
2021/04/08 00:45:26;;;;;;;7.57;4.87;;;;;;;;;;5117722;28;20493;-73
2021/04/08 00:47:53;;;;;;;12.77;5.40;;;;;;;;;;5118407;28;20443;-73
2021/04/08 00:50:21;;;;;;;10.17;4.87;;;;;;;;;;5118221;28;20541;-73
2021/04/08 00:52:51;;;;;;;16.30;4.80;;;;;;;;;;5118268;28;20267;-73
2021/04/08 00:55:19;;;;;;;9.47;5.33;;;;;;;;;;5118255;28;20311;-74
2021/04/08 00:57:46;;;;;;;10.70;5.03;;;;;;;;;;5117909;28;20470;-73
2021/04/08 01:00:15;;;;;;;9.10;5.00;;;;;;;;;;5117928;28;20247;-74
2021/04/08 01:02:42;;;;;;;7.17;5.33;;;;;;;;;;5118006;28;20725;-73
2021/04/08 01:05:12;;;;;;;12.67;6.10;;;;;;;;;;5118139;28;20585;-73
2021/04/08 01:07:39;;;;;;;9.33;5.30;;;;;;;;;;5118012;28;20232;-73
2021/04/08 01:10:06;;;;;;;9.20;5.13;;;;;;;;;;5118192;28;20525;-74
2021/04/08 01:12:33;;;;;;;9.47;6.17;;;;;;;;;;5117800;27;20662;-74
2021/04/08 01:15:01;;;;;;;9.67;5.67;;;;;;;;;;5117577;28;20807;-74
2021/04/08 01:17:33;;;;;;;11.13;6.07;;;;;;;;;;5118141;28;20482;-73
2021/04/08 01:20:24;;;;;;;7.90;4.63;;;;;;;;;;5118005;28;21001;-73
2021/04/08 01:23:04;;;;;;;6.67;4.43;;;;;;;;;;5117910;28;20517;-73
2021/04/08 01:25:43;;;;;;;8.37;5.10;;;;;;;;;;5118091;28;20557;-73
2021/04/08 01:28:15;;;;;;;9.50;5.17;;;;;;;;;;5117660;28;20807;-74
2021/04/08 01:30:44;;;;;;;9.33;4.90;;;;;;;;;;5114035;28;20890;-73
2021/04/08 01:33:16;;;;;;;7.07;4.53;;;;;;;;;;5117835;28;20510;-73
2021/04/08 01:35:44;;;;;;;14.67;5.40;;;;;;;;;;5117141;28;20988;-73
2021/04/08 01:38:14;;;;;;;11.70;5.43;;;;;;;;;;5097683;28;20805;-72
2021/04/08 01:40:41;;;;;;;6.90;4.47;;;;;;;;;;5101581;28;20873;-72
2021/04/08 01:43:09;;;;;;;12.60;4.63;;;;;;;;;;5114554;28;20439;-72
2021/04/08 01:45:36;;;;;;;8.23;4.50;;;;;;;;;;5115498;28;20253;-72
2021/04/08 01:48:05;;;;;;;8.60;4.20;;;;;;;;;;5115679;28;20977;-73
2021/04/08 01:50:33;;;;;;;8.40;4.67;;;;;;;;;;5115780;28;20383;-73
2021/04/08 01:53:01;;;;;;;7.57;4.50;;;;;;;;;;5115618;28;20481;-73
2021/04/08 01:55:29;;;;;;;9.30;4.57;;;;;;;;;;5117440;28;20479;-73
2021/04/08 01:57:57;;;;;;;7.37;4.33;;;;;;;;;;5121848;27;20550;-73
2021/04/08 02:00:24;;;;;;;8.40;5.10;;;;;;;;;;5122163;27;20291;-72
2021/04/08 02:02:54;;;;;;;11.60;4.60;;;;;;;;;;5120310;27;20500;-73
2021/04/08 02:05:23;;;;;;;7.43;4.60;;;;;;;;;;5118895;27;20541;-73
2021/04/08 02:07:51;;;;;;;11.60;5.77;;;;;;;;;;5119945;28;20481;-73
2021/04/08 02:10:19;;;;;;;10.80;4.80;;;;;;;;;;5120930;27;20466;-73
2021/04/08 02:12:47;;;;;;;12.03;5.20;;;;;;;;;;5132521;27;20910;-72
2021/04/08 02:15:16;;;;;;;11.17;5.30;;;;;;;;;;5140809;27;20493;-72
2021/04/08 02:17:44;;;;;;;5.67;5.03;;;;;;;;;;5112956;27;20479;-73
2021/04/08 02:20:13;;;;;;;11.23;5.90;;;;;;;;;;5119099;28;20431;-73
2021/04/08 02:22:42;;;;;;;12.80;6.00;;;;;;;;;;5119092;28;20526;-72
2021/04/08 02:25:10;;;;;;;13.63;6.40;;;;;;;;;;5118613;28;20516;-73
2021/04/08 02:27:38;;;;;;;17.10;6.47;;;;;;;;;;5118491;28;20507;-73
2021/04/08 02:30:07;;;;;;;10.87;6.10;;;;;;;;;;5118647;28;20470;-72
2021/04/08 02:32:35;;;;;;;11.23;6.30;;;;;;;;;;5119288;28;20513;-72
2021/04/08 02:35:03;;;;;;;10.87;6.47;;;;;;;;;;5120509;28;20462;-73
2021/04/08 02:41:00;;;;;;;11.13;6.47;;;;;;;;;;5120326;28;20792;-72
2021/04/08 02:43:27;;;;;;;14.40;6.97;;;;;;;;;;5120190;28;20473;-72
2021/04/08 02:45:54;;;;;;;8.30;6.13;;;;;;;;;;5120014;28;20459;-73
2021/04/08 02:48:22;;;;;;;13.57;6.93;;;;;;;;;;5120441;28;20518;-72
2021/04/08 02:50:50;;;;;;;11.43;6.77;;;;;;;;;;5120065;28;20538;-72
2021/04/08 02:53:21;;;;;;;11.00;7.07;;;;;;;;;;5119983;28;20573;-72
2021/04/08 02:55:50;;;;;;;11.47;6.07;;;;;;;;;;5120268;28;20553;-72
2021/04/08 02:58:19;;;;;;;9.27;6.10;;;;;;;;;;5119816;28;20439;-72
2021/04/08 03:00:49;;;;;;;9.17;6.87;;;;;;;;;;5119950;28;20527;-72
2021/04/08 03:03:19;;;;;;;12.23;7.13;;;;;;;;;;5120316;28;20611;-72
2021/04/08 03:05:47;;;;;;;13.47;7.37;;;;;;;;;;5119741;28;20494;-72
2021/04/08 03:08:15;;;;;;;11.27;6.13;;;;;;;;;;5119975;28;20529;-72
2021/04/08 03:10:44;;;;;;;13.30;6.90;;;;;;;;;;5120396;28;20442;-72
2021/04/08 03:13:12;;;;;;;12.47;7.33;;;;;;;;;;5119401;28;20890;-72
2021/04/08 03:15:40;;;;;;;9.90;6.23;;;;;;;;;;5119592;28;20463;-72
2021/04/08 03:18:10;;;;;;;15.50;7.70;;;;;;;;;;5119903;28;20517;-72
2021/04/08 03:20:37;;;;;;;10.37;6.37;;;;;;;;;;5119839;28;20502;-71
2021/04/08 03:23:06;;;;;;;10.97;6.53;;;;;;;;;;5119307;28;20439;-72
2021/04/08 03:25:33;;;;;;;8.33;6.07;;;;;;;;;;5119594;28;20558;-72
2021/04/08 03:28:01;;;;;;;10.27;6.77;;;;;;;;;;5119262;28;20529;-71
2021/04/08 03:30:28;;;;;;;8.60;6.33;;;;;;;;;;5119296;28;20998;-71
2021/04/08 03:32:56;;;;;;;10.17;6.20;;;;;;;;;;5119487;27;20557;-72
2021/04/08 03:35:24;;;;;;;16.17;6.27;;;;;;;;;;5119185;28;20873;-72
2021/04/08 03:37:51;;;;;;;12.30;6.83;;;;;;;;;;5119170;28;21025;-71
2021/04/08 03:40:19;;;;;;;10.47;6.13;;;;;;;;;;5119491;28;20471;-72
2021/04/08 03:42:49;;;;;;;10.00;6.30;;;;;;;;;;5118940;28;20443;-72
2021/04/08 03:45:16;;;;;;;10.23;5.73;;;;;;;;;;5118631;28;20541;-72
2021/04/08 03:47:44;;;;;;;9.60;6.10;;;;;;;;;;5119301;28;20447;-72
2021/04/08 03:50:13;;;;;;;8.60;6.33;;;;;;;;;;5119101;27;20792;-72
2021/04/08 03:52:40;;;;;;;6.97;5.60;;;;;;;;;;5119007;28;20922;-72
2021/04/08 03:55:08;;;;;;;17.13;6.40;;;;;;;;;;5119035;28;20462;-72
2021/04/08 03:57:38;;;;;;;10.47;5.50;;;;;;;;;;5118893;28;20985;-72
2021/04/08 04:00:06;;;;;;;9.97;5.80;;;;;;;;;;5118777;28;20478;-72
2021/04/08 04:02:33;;;;;;;12.07;6.43;;;;;;;;;;5119029;28;20470;-72
2021/04/08 04:05:01;;;;;;;11.80;5.60;;;;;;;;;;5118683;28;20490;-72
2021/04/08 04:07:30;;;;;;;12.97;5.57;;;;;;;;;;5118992;28;20530;-72
2021/04/08 04:09:58;;;;;;;12.50;6.50;;;;;;;;;;5118684;28;20442;-72
2021/04/08 04:12:25;;;;;;;11.17;4.90;;;;;;;;;;5118760;28;20474;-72
2021/04/08 04:14:53;;;;;;;9.63;5.23;;;;;;;;;;5118517;28;20490;-72
2021/04/08 04:17:29;;;;;;;7.90;5.33;;;;;;;;;;5117998;28;20482;-72
2021/04/08 04:19:57;;;;;;;7.30;5.37;;;;;;;;;;5118529;28;20438;-72
2021/04/08 04:22:38;;;;;;;9.90;6.20;;;;;;;;;;5118731;28;20466;-72
2021/04/08 04:25:05;;;;;;;6.73;4.83;;;;;;;;;;5118280;28;20517;-72
2021/04/08 04:27:33;;;;;;;10.27;5.00;;;;;;;;;;5118276;28;20530;-72
2021/04/08 04:30:00;;;;;;;9.17;4.93;;;;;;;;;;5118306;28;20525;-72
2021/04/08 04:32:27;;;;;;;10.37;4.97;;;;;;;;;;5118560;28;20509;-72
2021/04/08 04:34:54;;;;;;;7.30;5.23;;;;;;;;;;5118445;28;20534;-72
2021/04/08 04:37:21;;;;;;;6.60;4.83;;;;;;;;;;5118553;28;20477;-72
2021/04/08 04:39:49;;;;;;;9.77;5.60;;;;;;;;;;5118450;28;20521;-72
2021/04/08 04:42:16;;;;;;;9.43;5.60;;;;;;;;;;5118084;28;20529;-72
2021/04/08 04:44:43;;;;;;;11.87;5.67;;;;;;;;;;5118101;28;20549;-71
2021/04/08 04:47:10;;;;;;;9.60;5.83;;;;;;;;;;5118426;28;20470;-72
2021/04/08 04:49:38;;;;;;;12.83;5.93;;;;;;;;;;5118475;28;20443;-72
2021/04/08 04:52:05;;;;;;;7.87;5.50;;;;;;;;;;5118152;28;20533;-72
2021/04/08 04:54:32;;;;;;;9.87;5.90;;;;;;;;;;5117906;28;20989;-72
2021/04/08 04:57:00;;;;;;;9.80;5.93;;;;;;;;;;5117927;28;20474;-71
2021/04/08 04:59:27;;;;;;;9.27;5.37;;;;;;;;;;5118025;27;20887;-72
2021/04/08 05:01:54;;;;;;;13.20;6.30;;;;;;;;;;5118169;28;20997;-72
2021/04/08 05:04:21;;;;;;;19.27;11.07;;;;;;;;;;5117938;28;20463;-72
2021/04/08 05:06:48;;;;;;;9.70;6.03;;;;;;;;;;5117993;28;20857;-72
2021/04/08 05:09:15;;;;;;;9.07;5.90;;;;;;;;;;5118253;28;20435;-72
2021/04/08 05:11:42;;;;;;;13.87;6.77;;;;;;;;;;5118161;28;20453;-72
2021/04/08 05:14:10;;;;;;;11.27;6.93;;;;;;;;;;5118025;28;20521;-73
2021/04/08 05:16:37;;;;;;;11.07;7.03;;;;;;;;;;5117561;28;20487;-72
2021/04/08 05:19:04;;;;;;;11.37;6.83;;;;;;;;;;5118139;28;20518;-73
2021/04/08 05:21:31;;;;;;;12.70;6.93;;;;;;;;;;5117998;28;20438;-72
2021/04/08 05:23:58;;;;;;;11.80;6.97;;;;;;;;;;5117719;28;20557;-73
2021/04/08 05:26:25;;;;;;;15.53;7.27;;;;;;;;;;5117901;28;20520;-72
2021/04/08 05:28:52;;;;;;;12.83;6.73;;;;;;;;;;5118431;28;20534;-72
2021/04/08 05:31:20;;;;;;;18.00;7.27;;;;;;;;;;5121151;28;20438;-72
2021/04/08 05:33:47;;;;;;;15.70;7.30;;;;;;;;;;5120794;27;21059;-72
2021/04/08 05:36:14;;;;;;;12.07;6.47;;;;;;;;;;5120652;27;20482;-72
2021/04/08 05:38:41;;;;;;;14.73;7.03;;;;;;;;;;5121248;28;20439;-72
2021/04/08 05:41:08;;;;;;;11.40;6.67;;;;;;;;;;5121475;27;20465;-72
2021/04/08 05:43:37;;;;;;;12.67;7.83;;;;;;;;;;5120014;28;20447;-72
2021/04/08 05:46:09;;;;;;;21.17;9.83;;;;;;;;;;5121457;27;20458;-72
2021/04/08 05:48:37;;;;;;;10.87;6.73;;;;;;;;;;5120804;28;21278;-72
2021/04/08 05:51:05;;;;;;;11.87;7.40;;;;;;;;;;5119806;28;20529;-72
2021/04/08 05:53:32;;;;;;;11.17;6.63;;;;;;;;;;5119952;28;20476;-72
2021/04/08 05:55:59;;;;;;;12.40;7.53;;;;;;;;;;5119877;28;20505;-73
2021/04/08 05:58:26;;;;;;;14.97;6.57;;;;;;;;;;5120785;27;20529;-73
2021/04/08 06:00:53;;;;;;;12.03;7.30;;;;;;;;;;5117093;28;20469;-73
2021/04/08 06:03:20;;;;;;;13.50;7.67;;;;;;;;;;5121353;27;20988;-72
2021/04/08 06:05:48;;;;;;;13.17;7.50;;;;;;;;;;5122281;27;20459;-73
2021/04/08 06:08:15;;;;;;;16.67;8.77;;;;;;;;;;5120031;28;20474;-73
2021/04/08 06:10:42;;;;;;;21.33;10.47;;;;;;;;;;5120730;27;20473;-73
2021/04/08 06:13:09;;;;;;;18.70;10.00;;;;;;;;;;5121109;27;20513;-72
2021/04/08 06:15:36;;;;;;;16.00;8.53;;;;;;;;;;5119083;28;20478;-72
2021/04/08 06:18:03;;;;;;;17.90;10.00;;;;;;;;;;5120113;27;20471;-73
2021/04/08 06:20:30;;;;;;;15.50;10.17;;;;;;;;;;5119106;28;20514;-73
2021/04/08 06:23:04;;;;;;;16.27;9.87;;;;;;;;;;5118371;28;20442;-72
2021/04/08 06:25:31;;;;;;;20.50;9.90;;;;;;;;;;5120427;28;20505;-72
2021/04/08 06:27:58;;;;;;;22.10;9.23;;;;;;;;;;5120487;28;20442;-72
2021/04/08 06:30:26;;;;;;;14.53;9.33;;;;;;;;;;5120135;27;20513;-72
2021/04/08 06:32:53;;;;;;;17.80;9.43;;;;;;;;;;5120559;28;20561;-73
2021/04/08 06:35:21;;;;;;;21.33;12.43;;;;;;;;;;5120632;28;20459;-73
2021/04/08 06:37:50;;;;;;;16.67;9.53;;;;;;;;;;5120121;28;20571;-73
2021/04/08 06:40:19;;;;;;;18.23;10.40;;;;;;;;;;5120089;28;20443;-73
2021/04/08 06:42:47;;;;;;;26.03;10.47;;;;;;;;;;5120133;28;20526;-73
2021/04/08 06:45:15;;;;;;;17.27;9.53;;;;;;;;;;5120104;28;20494;-73
2021/04/08 06:47:47;;;;;;;16.70;9.10;;;;;;;;;;5120351;28;20447;-73
2021/04/08 06:50:14;;;;;;;15.23;9.07;;;;;;;;;;5120036;28;20961;-73
2021/04/08 06:52:42;;;;;;;17.73;9.77;;;;;;;;;;5119979;28;21039;-73
2021/04/08 06:55:09;;;;;;;15.70;9.37;;;;;;;;;;5119873;28;20824;-73
2021/04/08 06:57:39;;;;;;;15.73;9.03;;;;;;;;;;5119897;28;21089;-73
2021/04/08 07:00:06;;;;;;;26.10;9.53;;;;;;;;;;5119924;28;20236;-73
2021/04/08 07:02:36;;;;;;;20.83;9.73;;;;;;;;;;5120114;28;20264;-74
2021/04/08 07:05:03;;;;;;;13.30;9.00;;;;;;;;;;5119737;28;20755;-74
2021/04/08 07:07:31;;;;;;;36.03;10.17;;;;;;;;;;5119782;28;20474;-74
2021/04/08 07:09:58;;;;;;;17.37;10.70;;;;;;;;;;5119153;27;20247;-75
2021/04/08 07:12:25;;;;;;;25.77;10.40;;;;;;;;;;5118537;27;20201;-75
2021/04/08 07:14:53;;;;;;;21.17;10.37;;;;;;;;;;5119541;27;20224;-74
2021/04/08 07:17:21;;;;;;;23.97;10.70;;;;;;;;;;5118440;28;20435;-74
2021/04/08 07:19:48;;;;;;;13.13;10.30;;;;;;;;;;5118730;27;20471;-75
2021/04/08 07:22:17;;;;;;;14.93;10.47;;;;;;;;;;5118096;28;20504;-74
2021/04/08 07:24:44;;;;;;;19.50;10.10;;;;;;;;;;5118879;27;20538;-74
2021/04/08 07:27:16;;;;;;;18.97;9.80;;;;;;;;;;5119760;27;20892;-74
2021/04/08 07:29:47;;;;;;;16.60;9.50;;;;;;;;;;5120254;27;20859;-74
2021/04/08 07:32:20;;;;;;;18.07;9.00;;;;;;;;;;5116709;28;20500;-74
2021/04/08 07:34:48;;;;;;;14.63;9.27;;;;;;;;;;5119000;27;20483;-74
2021/04/08 07:37:15;;;;;;;15.67;9.00;;;;;;;;;;5118639;27;20466;-75
2021/04/08 07:39:44;;;;;;;18.77;9.73;;;;;;;;;;5120710;27;20498;-74
2021/04/08 07:42:12;;;;;;;13.10;9.67;;;;;;;;;;5115673;28;20873;-74
2021/04/08 07:44:42;;;;;;;14.80;9.13;;;;;;;;;;5118518;28;21016;-74
2021/04/08 07:47:17;;;;;;;17.53;8.77;;;;;;;;;;5118839;28;20953;-74
2021/04/08 07:49:45;;;;;;;18.27;9.43;;;;;;;;;;5118913;28;20785;-74
2021/04/08 07:52:15;;;;;;;13.33;8.53;;;;;;;;;;5118401;28;20431;-74
2021/04/08 07:54:55;;;;;;;14.63;8.80;;;;;;;;;;5118701;28;20483;-75
2021/04/08 07:57:22;;;;;;;13.13;7.97;;;;;;;;;;5113875;28;20541;-74
2021/04/08 07:59:49;;;;;;;16.70;8.40;;;;;;;;;;5114027;27;20842;-75
2021/04/08 08:02:17;;;;;;;16.07;7.53;;;;;;;;;;5136375;27;20456;-74
2021/04/08 08:04:44;;;;;;;12.97;7.60;;;;;;;;;;5106333;28;20247;-77
2021/04/08 08:07:25;;;;;;;11.67;6.97;;;;;;;;;;5106957;28;20281;-75
2021/04/08 08:09:53;;;;;;;13.47;7.43;;;;;;;;;;5106024;28;20448;-75
2021/04/08 08:12:20;;;;;;;15.00;6.70;;;;;;;;;;5106720;28;20444;-77
2021/04/08 08:14:47;;;;;;;14.10;6.50;;;;;;;;;;5103317;28;20518;-77
2021/04/08 08:17:15;;;;;;;13.00;6.97;;;;;;;;;;5104605;28;20198;-83
2021/04/08 08:19:44;;;;;;;14.03;6.83;;;;;;;;;;5104210;28;20995;-76
2021/04/08 08:22:18;;;;;;;10.70;6.90;;;;;;;;;;5104373;28;20529;-76
2021/04/08 08:24:54;;;;;;;13.87;6.90;;;;;;;;;;5105475;28;20502;-76
2021/04/08 08:27:36;;;;;;;13.30;6.23;;;;;;;;;;5104517;28;20442;-76
2021/04/08 08:30:03;;;;;;;22.63;6.87;;;;;;;;;;5105904;28;20683;-76
2021/04/08 08:32:30;;;;;;;8.97;5.20;;;;;;;;;;5104481;28;20229;-75
2021/04/08 08:34:58;;;;;;;8.77;5.17;;;;;;;;;;5109096;28;20663;-75
2021/04/08 08:37:27;;;;;;;7.00;3.93;;;;;;;;;;5103725;28;20235;-76
2021/04/08 08:40:14;;;;;;;6.27;3.67;;;;;;;;;;5105683;28;20205;-76
2021/04/08 08:42:41;;;;;;;9.63;3.73;;;;;;;;;;5105614;28;20261;-75
2021/04/08 08:45:09;;;;;;;7.63;3.53;;;;;;;;;;5104980;28;20315;-75
2021/04/08 08:47:39;;;;;;;7.90;3.43;;;;;;;;;;5111353;28;20275;-73
2021/04/08 08:50:10;;;;;;;5.57;3.50;;;;;;;;;;5117820;28;20254;-75
2021/04/08 08:52:40;;;;;;;7.00;2.97;;;;;;;;;;5120828;28;20264;-75
2021/04/08 08:55:07;;;;;;;4.00;2.60;;;;;;;;;;5138078;27;20260;-74
2021/04/08 08:57:34;;;;;;;5.23;2.70;;;;;;;;;;5138287;27;20303;-76
2021/04/08 09:00:01;;;;;;;7.27;3.03;;;;;;;;;;5137979;27;20573;-78
2021/04/08 09:02:28;;;;;;;3.73;2.87;;;;;;;;;;5138306;27;20208;-75
2021/04/08 09:04:56;;;;;;;3.43;2.40;;;;;;;;;;5131685;27;20638;-74
2021/04/08 09:07:26;;;;;;;3.33;2.70;;;;;;;;;;5121480;28;20288;-74
2021/04/08 09:09:56;;;;;;;6.70;2.50;;;;;;;;;;5131829;27;20222;-75
2021/04/08 09:12:24;;;;;;;5.23;2.97;;;;;;;;;;5133907;27;20291;-74
2021/04/08 09:14:51;;;;;;;4.23;2.50;;;;;;;;;;5141839;27;20706;-73
2021/04/08 09:17:33;;;;;;;5.60;3.30;;;;;;;;;;5131819;27;20566;-74
2021/04/08 09:20:04;;;;;;;4.17;2.67;;;;;;;;;;5121703;28;20694;-74
2021/04/08 09:22:32;;;;;;;4.07;2.67;;;;;;;;;;5121826;28;20307;-73
2021/04/08 09:24:59;;;;;;;5.77;2.33;;;;;;;;;;5121418;28;20319;-73
2021/04/08 09:27:26;;;;;;;8.57;3.30;;;;;;;;;;5121585;28;20201;-73
2021/04/08 09:29:56;;;;;;;5.60;2.23;;;;;;;;;;5121304;27;20289;-75
2021/04/08 09:32:31;;;;;;;2.60;2.40;;;;;;;;;;5121391;28;20253;-74
2021/04/08 09:35:15;;;;;;;7.30;2.67;;;;;;;;;;5121260;28;20703;-74
2021/04/08 09:38:09;;;;;;;5.23;2.83;;;;;;;;;;5108683;28;20616;-73
2021/04/08 09:40:50;;;;;;;3.27;2.70;;;;;;;;;;5085227;27;20204;-75
2021/04/08 09:43:18;;;;;;;4.00;2.73;;;;;;;;;;5109859;28;20564;-75
2021/04/08 09:45:52;;;;;;;5.57;2.70;;;;;;;;;;5111374;28;20650;-77
2021/04/08 09:48:21;;;;;;;5.00;3.10;;;;;;;;;;5109158;27;20296;-75
2021/04/08 09:50:52;;;;;;;6.10;3.03;;;;;;;;;;5140179;27;20208;-77
2021/04/08 09:53:20;;;;;;;4.00;2.30;;;;;;;;;;5120910;28;20213;-75
2021/04/08 09:55:55;;;;;;;2.90;2.50;;;;;;;;;;5121233;28;20260;-77
2021/04/08 09:58:24;;;;;;;5.93;2.17;;;;;;;;;;5120609;28;20642;-76
2021/04/08 10:00:52;;;;;;;6.90;3.23;;;;;;;;;;5120972;28;20247;-75
2021/04/08 10:03:29;;;;;;;4.07;2.73;;;;;;;;;;5120790;28;20295;-77
2021/04/08 10:05:56;;;;;;;3.03;2.63;;;;;;;;;;5120867;27;20232;-77
2021/04/08 10:08:24;;;;;;;4.03;2.60;;;;;;;;;;5120664;28;20610;-77
2021/04/08 10:10:51;;;;;;;3.87;2.67;;;;;;;;;;5120904;28;20204;-76
2021/04/08 10:13:21;;;;;;;4.53;2.60;;;;;;;;;;5120432;28;20733;-74
2021/04/08 10:15:49;;;;;;;3.13;2.50;;;;;;;;;;5118792;27;20278;-77
2021/04/08 10:18:16;;;;;;;6.03;3.00;;;;;;;;;;5120876;28;20211;-75
2021/04/08 10:20:45;;;;;;;4.47;2.63;;;;;;;;;;5120785;28;20265;-76
2021/04/08 10:23:12;;;;;;;4.10;2.60;;;;;;;;;;5120154;28;20310;-75
2021/04/08 10:25:39;;;;;;;7.10;2.90;;;;;;;;;;5120281;28;20260;-75
2021/04/08 10:28:08;;;;;;;3.83;2.97;;;;;;;;;;5120378;28;20254;-77
2021/04/08 10:30:38;;;;;;;4.47;2.73;;;;;;;;;;5120305;28;20204;-76
2021/04/08 10:33:16;;;;;;;3.33;2.50;;;;;;;;;;5120507;27;20205;-77
2021/04/08 10:35:43;;;;;;;6.27;2.50;;;;;;;;;;5118001;27;20307;-76
2021/04/08 10:38:11;;;;;;;5.13;2.10;;;;;;;;;;5120375;28;20247;-77
2021/04/08 10:40:39;;;;;;;3.67;2.20;;;;;;;;;;5120141;28;20568;-80
2021/04/08 10:43:08;;;;;;;3.30;2.30;;;;;;;;;;5119938;28;20625;-76
2021/04/08 10:45:36;;;;;;;2.80;2.30;;;;;;;;;;5111665;28;20220;-76
2021/04/08 10:48:06;;;;;;;3.13;2.53;;;;;;;;;;5118993;28;20213;-74
2021/04/08 10:50:33;;;;;;;2.47;2.27;;;;;;;;;;5112674;28;20735;-74
2021/04/08 10:53:00;;;;;;;2.43;2.17;;;;;;;;;;5117605;28;20304;-75
2021/04/08 10:55:28;;;;;;;3.17;1.90;;;;;;;;;;5119490;28;20298;-74
2021/04/08 10:57:55;;;;;;;2.87;1.83;;;;;;;;;;5135636;27;20678;-74
2021/04/08 11:00:24;;;;;;;3.17;1.90;;;;;;;;;;5140357;27;20208;-74
2021/04/08 11:02:53;;;;;;;2.43;1.90;;;;;;;;;;5140427;27;20242;-74
2021/04/08 11:05:21;;;;;;;1.50;1.40;;;;;;;;;;5140227;27;20224;-70
2021/04/08 11:07:49;;;;;;;2.07;1.70;;;;;;;;;;5138808;27;20232;-71
2021/04/08 11:10:17;;;;;;;1.87;1.60;;;;;;;;;;5111180;28;20211;-71
2021/04/08 11:12:47;;;;;;;2.40;1.80;;;;;;;;;;5119556;28;20283;-70
2021/04/08 11:15:15;;;;;;;3.27;2.30;;;;;;;;;;5119016;28;20292;-70
2021/04/08 11:17:43;;;;;;;4.10;2.43;;;;;;;;;;5114278;28;20197;-71
2021/04/08 11:20:12;;;;;;;5.90;2.63;;;;;;;;;;5119618;28;20213;-72
2021/04/08 11:22:44;;;;;;;3.63;2.33;;;;;;;;;;5119280;28;20273;-72
2021/04/08 11:25:12;;;;;;;4.40;2.70;;;;;;;;;;5118999;28;20320;-71
2021/04/08 11:27:43;;;;;;;3.40;2.70;;;;;;;;;;5119218;28;20668;-71
2021/04/08 11:30:11;;;;;;;4.13;2.43;;;;;;;;;;5118989;28;20238;-73
2021/04/08 11:32:43;;;;;;;4.93;2.20;;;;;;;;;;5119071;28;20231;-73
2021/04/08 11:35:23;;;;;;;4.83;2.00;;;;;;;;;;5114695;28;20274;-71
2021/04/08 11:37:50;;;;;;;3.87;2.40;;;;;;;;;;5119002;28;20644;-73
2021/04/08 11:40:20;;;;;;;5.63;2.80;;;;;;;;;;5119284;28;20205;-71
2021/04/08 11:43:18;;;;;;;3.37;2.50;;;;;;;;;;5119177;28;20204;-71
2021/04/08 11:45:45;;;;;;;2.43;1.90;;;;;;;;;;5118413;28;20790;-71
2021/04/08 11:48:12;;;;;;;3.23;1.97;;;;;;;;;;5118920;28;20263;-72
2021/04/08 11:50:44;;;;;;;5.57;2.30;;;;;;;;;;5118800;28;20232;-73
2021/04/08 11:53:12;;;;;;;4.20;2.30;;;;;;;;;;5118783;28;20205;-72
2021/04/08 11:55:40;;;;;;;3.50;2.27;;;;;;;;;;5118337;28;20228;-71
2021/04/08 11:58:08;;;;;;;2.23;2.03;;;;;;;;;;5118824;28;20242;-74
2021/04/08 12:00:36;;;;;;;7.10;3.07;;;;;;;;;;5118450;28;20209;-74
2021/04/08 12:03:13;;;;;;;2.57;2.10;;;;;;;;;;5118471;28;20269;-73
2021/04/08 12:05:41;;;;;;;3.13;2.23;;;;;;;;;;5117858;28;20378;-72
2021/04/08 12:08:08;;;;;;;3.07;1.60;;;;;;;;;;5120398;27;20196;-73
2021/04/08 12:10:36;;;;;;;3.97;1.90;;;;;;;;;;5117587;28;20196;-73
2021/04/08 12:13:04;;;;;;;3.37;1.63;;;;;;;;;;5118041;27;20256;-73
2021/04/08 12:15:33;;;;;;;4.37;1.90;;;;;;;;;;5119230;27;20228;-71
2021/04/08 12:18:00;;;;;;;1.83;1.70;;;;;;;;;;5117715;28;20287;-71
2021/04/08 12:20:27;;;;;;;2.30;1.83;;;;;;;;;;5118497;27;20260;-71
2021/04/08 12:23:06;;;;;;;1.80;1.60;;;;;;;;;;5117534;28;20577;-71
2021/04/08 12:25:39;;;;;;;3.23;1.77;;;;;;;;;;5118042;27;20657;-72
2021/04/08 12:28:06;;;;;;;2.53;1.67;;;;;;;;;;5133654;27;20211;-71
2021/04/08 12:30:45;;;;;;;5.50;1.87;;;;;;;;;;5126648;27;20254;-71
2021/04/08 12:33:17;;;;;;;4.43;1.63;;;;;;;;;;5111940;28;20559;-71
2021/04/08 12:35:44;;;;;;;6.10;1.80;;;;;;;;;;5111424;28;20256;-71
2021/04/08 12:38:12;;;;;;;2.03;1.67;;;;;;;;;;5116959;28;20216;-71
2021/04/08 12:40:40;;;;;;;1.53;1.43;;;;;;;;;;5116062;28;20764;-71
2021/04/08 12:43:07;;;;;;;3.20;1.50;;;;;;;;;;5118133;28;20232;-71
2021/04/08 12:45:34;;;;;;;1.50;1.40;;;;;;;;;;5117996;28;20303;-71
2021/04/08 12:48:01;;;;;;;3.80;1.67;;;;;;;;;;5118321;28;20204;-70
2021/04/08 12:50:28;;;;;;;1.73;1.30;;;;;;;;;;5118076;28;20706;-71
2021/04/08 12:52:55;;;;;;;2.20;1.50;;;;;;;;;;5118150;28;20241;-72
2021/04/08 12:55:25;;;;;;;2.10;1.50;;;;;;;;;;5117942;28;20263;-72
2021/04/08 12:57:53;;;;;;;1.57;1.27;;;;;;;;;;5117941;28;20635;-72
2021/04/08 13:00:20;;;;;;;4.53;1.37;;;;;;;;;;5117849;28;20386;-72
2021/04/08 13:02:47;;;;;;;3.13;1.80;;;;;;;;;;5118173;28;20233;-72
2021/04/08 13:05:15;;;;;;;3.73;1.50;;;;;;;;;;5118211;28;20221;-71
2021/04/08 13:07:43;;;;;;;2.43;1.73;;;;;;;;;;5118196;28;20205;-72
2021/04/08 13:10:10;;;;;;;4.17;1.37;;;;;;;;;;5118288;28;20243;-72
2021/04/08 13:12:38;;;;;;;1.50;1.40;;;;;;;;;;5117807;28;20253;-71
2021/04/08 13:15:06;;;;;;;3.33;1.50;;;;;;;;;;5117541;28;20659;-71
2021/04/08 13:17:33;;;;;;;4.30;1.43;;;;;;;;;;5117950;28;20279;-72
2021/04/08 13:20:00;;;;;;;4.37;1.50;;;;;;;;;;5118142;28;20235;-73
2021/04/08 13:22:28;;;;;;;2.13;1.53;;;;;;;;;;5118363;27;20236;-73
2021/04/08 13:24:55;;;;;;;2.17;1.47;;;;;;;;;;5117532;28;20268;-73
2021/04/08 13:27:22;;;;;;;2.13;1.60;;;;;;;;;;5117755;28;20607;-73
2021/04/08 13:29:49;;;;;;;2.57;1.60;;;;;;;;;;5117473;28;20680;-73
2021/04/08 13:32:16;;;;;;;5.17;1.93;;;;;;;;;;5118073;28;20244;-73
2021/04/08 13:34:43;;;;;;;2.63;1.33;;;;;;;;;;5117588;28;20263;-73
2021/04/08 13:37:12;;;;;;;2.90;1.40;;;;;;;;;;5117964;28;20247;-73
2021/04/08 13:39:39;;;;;;;2.90;1.40;;;;;;;;;;5117811;28;20612;-73
2021/04/08 13:42:07;;;;;;;1.50;1.40;;;;;;;;;;5117816;28;20212;-73
2021/04/08 13:44:34;;;;;;;2.60;1.97;;;;;;;;;;5117310;28;20777;-73
2021/04/08 13:47:02;;;;;;;1.20;1.10;;;;;;;;;;5117803;28;20205;-73
2021/04/08 13:49:29;;;;;;;1.93;1.13;;;;;;;;;;5117713;28;20574;-73
2021/04/08 13:51:57;;;;;;;4.70;1.50;;;;;;;;;;5117866;28;20246;-73
2021/04/08 13:54:25;;;;;;;4.30;1.30;;;;;;;;;;5121222;28;20307;-73
2021/04/08 13:56:52;;;;;;;2.17;1.40;;;;;;;;;;5120862;28;20287;-73
2021/04/08 13:59:19;;;;;;;3.03;1.33;;;;;;;;;;5120924;27;20217;-73
2021/04/08 14:01:46;;;;;;;4.63;1.50;;;;;;;;;;5121017;28;20289;-73
2021/04/08 14:04:14;;;;;;;2.33;1.80;;;;;;;;;;5121128;28;20283;-74
2021/04/08 14:06:41;;;;;;;1.60;1.50;;;;;;;;;;5120867;28;20239;-75
2021/04/08 14:09:09;;;;;;;3.43;1.50;;;;;;;;;;5120905;28;20240;-73
2021/04/08 14:11:36;;;;;;;4.00;1.77;;;;;;;;;;5120898;28;20236;-74
2021/04/08 14:14:03;;;;;;;4.97;2.13;;;;;;;;;;5120673;28;20201;-75
2021/04/08 14:16:30;;;;;;;1.97;1.40;;;;;;;;;;5120924;28;20221;-75
2021/04/08 14:18:58;;;;;;;3.13;1.40;;;;;;;;;;5120855;27;20568;-74
2021/04/08 14:21:25;;;;;;;4.23;1.67;;;;;;;;;;5120661;28;20909;-74
2021/04/08 14:23:52;;;;;;;5.80;1.47;;;;;;;;;;5120667;28;20237;-74
2021/04/08 14:26:21;;;;;;;3.50;1.70;;;;;;;;;;5120556;28;20221;-74
2021/04/08 14:28:48;;;;;;;2.30;1.87;;;;;;;;;;5120467;28;20223;-74
2021/04/08 14:31:15;;;;;;;2.33;1.23;;;;;;;;;;5120361;28;20731;-74
2021/04/08 14:33:42;;;;;;;2.37;1.60;;;;;;;;;;5120859;28;20209;-74
2021/04/08 14:36:09;;;;;;;2.70;1.67;;;;;;;;;;5104512;28;20312;-74
2021/04/08 14:38:37;;;;;;;2.10;1.30;;;;;;;;;;5118726;28;20244;-75
2021/04/08 14:41:04;;;;;;;1.53;1.40;;;;;;;;;;5119382;28;20295;-74
2021/04/08 14:43:31;;;;;;;2.40;1.50;;;;;;;;;;5120604;28;20208;-74
2021/04/08 14:45:58;;;;;;;1.43;1.27;;;;;;;;;;5120116;28;20313;-74
2021/04/08 14:48:25;;;;;;;1.50;1.40;;;;;;;;;;5120575;28;20204;-74